Aeroporto :
LOGIN :

Iscrizione | Disclaimer

   EN    FR    IT 

 










Sommario :    VFR   VFR Marginale   IFR   IFR Intensivo   IFR Molto Intensivo
Visibilità : 
Base nubi : 
>= 8 km
>= 3000ft
5 / 8 km
1000 / 3000 ft
1500m / 5 km
500 / 1000 ft
800 / 1500m
200 / 500 ft
< 800m
< 200 ft
Simboli :   Temporali  Nebbia  Neve Forte  Precipitazioni Forti  Vento > 20 kt
SIGMETs :   Varie  Temporali  Ghiacco  Turbolenza  Onda orograficha  Ceneri Vulcaniche







- Altitudine del aeroporto : 1325 ft
- Codice IATA : EBU
- Carte del aeroporto


LFMH - St-Etienne Boutheon

ULTIMO METAR :
  • 252330Z AUTO VRB04KT 9999 SCT032/// SCT044/// BKN058/// ///TCU 06/03 Q1014

METARs OBSOLETI :
  • 252300Z AUTO 13006KT 100V160 9999 -RA BKN031/// OVC049/// ///TCU 05/03 Q1014
  • 252230Z AUTO 14012KT 9999 -RA BKN034/// BKN044/// OVC052/// ///CB 05/03 Q1014
  • 252200Z AUTO 14016KT 8000 -SNRA BKN036/// BKN044/// OVC056/// ///CB 05/03 Q1014
  • 252130Z AUTO 13014KT 9999 -SNRA SCT026/// BKN036/// OVC046/// ///TCU 05/04 Q1013
  • 252100Z AUTO 15013KT 5000 -SNRA BR OVC031/// ///CB 06/05 Q1014

TAF TAF LFMH
Valido dal 25 a 15 ore il 26 a 15 ore UTC


251400Z 2515/2615 30008KT 8000 RA SCT017 OVC040
TEMPO 2515/2520 18008KT 3000 RA SCT008 BKN013 OVC028
BECMG 2520/2522 14007KT 9999 NSW SCT034 OVC080
BECMG 2607/2609 24006KT SCT032
BECMG 2609/2612 SCT036TCU
TEMPO 2612/2615 24015G28KT 5000 SHRA BKN023TCU
PROB40
TEMPO 2613/2615 4000 -TSRA BKN020CB
ATIS : +33 4 77 36 17 51
Nessun NOTAM noto per questo aeroporto.
2 SIGMETs conosciuti per la FIR Marseille (LFMM) :
 
Temporali affogati
LFMM SIGMET 25 VALID 252330/260130 LFPW
LFMM MARSEILLE FIR/UIR EMBD TS OBS WI N4345 E00530 - N4345 E00345 - N4500 E00445 - N4500 E00600 - N4345 E00530 TOP FL270 MOV E 10KT NC=
Turbolenza severa
LFMM SIGMET 24 VALID 252200/260000 LFPW
LFMM MARSEILLE FIR/UIR SEV TURB FCST WI N4615 E00700 - N4515 E00700 - N4500 E00515 - N4615 E00630 - N4615 E00700 SFC/FL140 STNR WKN=



MetMap, La meteo Aeronautica in un colpo d'occhio ! - Copyright ORBIFLY Dicembre 2007 - Disclaimer

ORBIFLY MET'MAP TEAM :

Programmazione e sviluppo : Alexandra Zaïnal
Concezione e sviluppo : Baudouin d'Aumeries
Co-Programmazione e sviluppo : Marc-Olivier Méhu
Supporto tecnico e logistico : Manuel Goepfert
Aiuto per la traduzione : Arnaldo La Scala

Contatto : metmap@orbifly.com




FONTI E CREDITI :

   NOAA